Home   Weather   United Kingdom   Leicester   Past weeks
Flag for United Kingdom

Past Weather in Leicester, England, United Kingdom — Yesterday and Last 2 Weeks

Currently: 41 °F. Passing clouds. (Weather station: East Midlands, United Kingdom). See more current weather

Past Weather in Leicester — Graph

°F

Leicester Temperature Yesterday

Maximum temperature yesterday: 50 °F (at 11:20 am)
Minimum temperature yesterday: 36 °F (at 4:20 am)
Average temperature yesterday: 43 °F

High & Low Weather Summary for the Past Weeks

 TemperatureHumidityPressure
High63 °F (Apr 23, 2:50 pm)93% (Apr 25, 4:50 am)30.45 "Hg (Apr 25, 4:50 am)
Low32 °F (Apr 22, 3:20 am)27% (Apr 22, 3:20 pm)29.15 "Hg (May 4, 12:50 am)
Average45 °F68%30.00 "Hg
* Reported Apr 21 10:20 pm — May 6 10:20 pm, Leicester. Weather by CustomWeather, © 2021

Note: Actual official high and low records may vary slightly from our data, if they occured in-between our weather recording intervals... More about our weather records

Leicester Weather History for the Previous 24 Hours

Scroll right to see more
 ConditionsComfort  
Time TempWeatherWind HumidityBarometerVisibility
10:20 pm
Thu, May 6
41 °FPassing clouds.12 mph81%29.80 "HgN/A
9:50 pm41 °FPartly cloudy.12 mph87%29.80 "HgN/A
9:20 pm41 °FPassing clouds.13 mph87%29.77 "HgN/A
8:50 pm41 °FPassing clouds.13 mph87%29.77 "HgN/A
8:20 pm41 °FScattered clouds.15 mph87%29.74 "HgN/A
7:50 pm41 °FScattered clouds.15 mph87%29.74 "HgN/A
7:20 pm43 °FRain showers. Partly sunny.15 mph81%29.71 "HgN/A
6:50 pm43 °FPassing clouds.16 mph76%29.71 "HgN/A
6:20 pm45 °FScattered clouds.17 mph76%29.71 "HgN/A
5:50 pm45 °FScattered clouds.20 mph71%29.71 "HgN/A
5:20 pm46 °FScattered clouds.20 mph66%29.71 "HgN/A
4:50 pm48 °FScattered clouds.18 mph58%29.71 "HgN/A
4:20 pm50 °FScattered clouds.17 mph50%29.68 "HgN/A
3:50 pm54 °FScattered clouds.15 mph30%29.68 "HgN/A
3:20 pm52 °FPassing clouds.12 mph41%29.68 "HgN/A
2:50 pm48 °FScattered clouds.16 mph50%29.68 "HgN/A
2:20 pm50 °FScattered clouds.16 mph43%29.68 "HgN/A
1:50 pm48 °FScattered clouds.18 mph54%29.68 "HgN/A
12:50 pm52 °FScattered clouds.13 mph44%29.68 "HgN/A
12:20 pm48 °FScattered clouds.14 mph50%29.68 "HgN/A
11:50 am50 °FScattered clouds.13 mph47%29.68 "HgN/A
11:20 am48 °FScattered clouds.12 mph54%29.68 "HgN/A
10:50 am46 °FPassing clouds.9 mph62%29.68 "HgN/A
9:50 am43 °FScattered clouds.9 mph71%29.68 "HgN/A
9:20 am45 °FScattered clouds.9 mph71%29.68 "HgN/A
8:50 am43 °FPassing clouds.8 mph71%29.68 "HgN/A
8:20 am43 °FPassing clouds.5 mph71%29.68 "HgN/A
7:50 am41 °FScattered clouds.6 mph76%29.68 "HgN/A
6:50 am37 °FPartly sunny.8 mph87%29.68 "HgN/A
6:20 am37 °FSunny.7 mph87%29.68 "Hg10 mi
5:50 am37 °FSunny.7 mph87%29.68 "Hg10 mi
5:20 am37 °FClear.7 mph87%29.68 "Hg10 mi
4:50 am39 °FPassing clouds.7 mph81%29.71 "HgN/A
4:20 am37 °FPassing clouds.7 mph87%29.71 "HgN/A
3:50 am37 °FClear.7 mph87%29.71 "Hg10 mi
3:20 am37 °FClear.8 mph87%29.71 "Hg10 mi
2:50 am39 °FClear.6 mph81%29.74 "Hg10 mi
2:20 am39 °FPassing clouds.6 mph81%29.74 "HgN/A
1:50 am37 °FClear.5 mph81%29.74 "Hg10 mi
1:20 am37 °FPassing clouds.6 mph81%29.74 "HgN/A
12:50 am39 °FPassing clouds.7 mph75%29.77 "HgN/A
12:20 am37 °FClear.9 mph81%29.77 "Hg10 mi
11:50 pm
Wed, May 5
39 °FClear.8 mph75%29.77 "Hg10 mi
11:20 pm39 °FClear.10 mph75%29.77 "Hg10 mi
Weather by CustomWeather, © 2021

See weather overview